Rock Bridge, Tennessee
Current Conditions -  °F | °C
As of 11:53 PM on Monday 20 Oct 2014 (Local Time) from KBWG Reporting Station
Clear Clear  
Wind Chill: 56°   Ceiling: Unl
Heat Index: 56°   Visibility: 10mi
Dew Point: 50°   Wind: 5mph
Humidity: 80%   Direction: 250°WSW
Pressure: 29.99"   Gusts: NA
Location:  36.5084°N, 86.3071°W
Report Text: KBWG 210453Z AUTO 25004KT 10SM CLR 13/10 A2999 RMK AO2 SLP154 T01330100
Loading
Personal Weather Stations






























Interactive Weather Map
Tropical Storm Tracking
New forecast layout! Learn more

10-Day Weather Forecast

Advertisements
Track Severe Weather on mobile